Time;durP1;ratioP1;P1;durP2;ratioP2;P2;SDS_P1;SDS_P2;PMS_P1;PMS_P2;Temp;Humidity;BMP_temperature;BMP_pressure;BME280_temperature;BME280_humidity;BME280_pressure;Samples;Min_cycle;Max_cycle;Signal;HPM_P1;HPM_P2
2024/01/02 00:01:27;;;;;;;2.77;1.10;;;8.30;99.10;;;;;;5033427;28;20185;-82
2024/01/02 00:03:52;;;;;;;1.83;0.80;;;8.60;99.10;;;;;;5037386;28;20718;-82
2024/01/02 00:06:18;;;;;;;2.00;1.13;;;8.60;99.00;;;;;;5033713;28;20178;-82
2024/01/02 00:08:43;;;;;;;3.37;1.20;;;8.20;99.10;;;;;;5028964;28;20190;-82
2024/01/02 00:11:09;;;;;;;2.57;1.00;;;8.90;99.40;;;;;;5031652;28;20180;-82
2024/01/02 00:13:35;;;;;;;2.10;1.00;;;8.80;98.60;;;;;;5033099;28;20179;-81
2024/01/02 00:16:00;;;;;;;1.10;0.80;;;8.80;99.20;;;;;;5036578;28;20189;-81
2024/01/02 00:18:26;;;;;;;1.00;0.80;;;9.20;99.40;;;;;;5030879;28;20191;-81
2024/01/02 00:20:51;;;;;;;5.20;1.00;;;8.20;98.90;;;;;;5029610;28;20557;-81
2024/01/02 00:23:17;;;;;;;2.70;0.90;;;8.10;99.10;;;;;;5030646;28;20182;-81
2024/01/02 00:25:43;;;;;;;1.83;0.83;;;8.60;99.40;;;;;;5028399;28;20536;-81
2024/01/02 00:28:09;;;;;;;2.90;1.00;;;8.30;99.30;;;;;;5032968;28;20189;-82
2024/01/02 00:30:35;;;;;;;3.95;1.83;;;8.80;99.50;;;;;;5036756;28;20213;-82
2024/01/02 00:33:04;;;;;;;2.57;0.80;;;9.00;99.60;;;;;;5036926;28;20186;-82
2024/01/02 00:35:30;;;;;;;2.88;0.98;;;8.70;99.50;;;;;;5036412;28;20273;-82
2024/01/02 00:37:55;;;;;;;1.30;0.73;;;8.20;99.30;;;;;;5029010;28;20275;-82
2024/01/02 00:40:21;;;;;;;1.30;0.70;;;8.40;99.40;;;;;;5031937;28;20285;-82
2024/01/02 00:42:46;;;;;;;1.00;0.70;;;8.90;99.90;;;;;;5034490;28;20282;-82
2024/01/02 00:45:12;;;;;;;2.50;1.10;;;8.60;99.40;;;;;;5040833;28;20203;-82
2024/01/02 00:47:37;;;;;;;1.10;0.80;;;8.50;99.60;;;;;;5037083;28;20635;-82
2024/01/02 00:50:04;;;;;;;2.10;1.10;;;9.10;99.90;;;;;;5040424;28;20182;-82
2024/01/02 00:52:29;;;;;;;0.90;0.70;;;8.70;99.80;;;;;;5034129;28;20190;-82
2024/01/02 00:54:55;;;;;;;1.63;0.80;;;8.20;99.40;;;;;;5038235;28;20225;-82
2024/01/02 00:57:20;;;;;;;1.23;0.80;;;8.20;99.30;;;;;;5034952;28;20420;-81
2024/01/02 00:59:46;;;;;;;1.37;1.00;;;9.10;99.90;;;;;;5039689;28;20214;-81
2024/01/02 01:02:12;;;;;;;1.73;0.80;;;8.50;99.70;;;;;;5034391;28;20183;-82
2024/01/02 01:04:43;;;;;;;3.50;0.83;;;8.80;99.80;;;;;;5032624;28;20217;-81
2024/01/02 01:07:10;;;;;;;2.17;0.80;;;8.60;99.80;;;;;;5032449;28;20184;-81
2024/01/02 01:09:35;;;;;;;3.55;1.23;;;8.40;99.70;;;;;;5041890;28;20217;-81
2024/01/02 01:12:02;;;;;;;1.10;0.70;;;8.80;99.80;;;;;;5037197;28;20187;-81
2024/01/02 01:14:28;;;;;;;1.17;0.70;;;8.10;99.30;;;;;;5044684;28;20186;-81
2024/01/02 01:16:53;;;;;;;1.13;0.80;;;8.60;99.60;;;;;;5057469;28;20205;-80
2024/01/02 01:19:19;;;;;;;2.50;1.00;;;8.50;99.50;;;;;;5048580;28;20940;-81
2024/01/02 01:21:44;;;;;;;0.80;0.70;;;8.70;99.60;;;;;;5039354;28;20281;-81
2024/01/02 01:24:10;;;;;;;2.93;0.97;;;8.30;99.40;;;;;;5035355;28;20675;-81
2024/01/02 01:26:36;;;;;;;2.03;0.97;;;8.80;99.60;;;;;;5040282;28;20273;-81
2024/01/02 01:29:02;;;;;;;2.07;1.00;;;8.60;99.40;;;;;;5036157;28;20299;-81
2024/01/02 01:31:28;;;;;;;1.42;0.70;;;8.10;99.30;;;;;;5039223;28;20815;-81
2024/01/02 01:33:53;;;;;;;3.27;0.90;;;8.70;99.60;;;;;;5038161;28;20209;-80
2024/01/02 01:36:19;;;;;;;1.67;0.80;;;8.40;99.40;;;;;;5039712;28;20277;-80
2024/01/02 01:38:44;;;;;;;1.17;0.80;;;8.70;99.50;;;;;;5039136;28;20204;-81
2024/01/02 01:41:10;;;;;;;0.80;0.73;;;8.70;99.60;;;;;;5038933;28;20596;-81
2024/01/02 01:43:35;;;;;;;3.03;1.03;;;8.90;99.30;;;;;;5037483;28;20175;-81
2024/01/02 01:46:03;;;;;;;2.40;0.70;;;8.70;99.70;;;;;;5037581;28;20766;-81
2024/01/02 01:48:29;;;;;;;2.15;0.80;;;8.70;99.70;;;;;;5033510;28;20193;-81
2024/01/02 01:50:55;;;;;;;1.10;0.70;;;8.40;99.60;;;;;;5039474;28;20260;-81
2024/01/02 01:53:21;;;;;;;1.13;0.90;;;8.70;99.70;;;;;;5043382;28;20277;-81
2024/01/02 01:55:47;;;;;;;0.90;0.70;;;8.20;99.50;;;;;;5042432;28;20208;-82
2024/01/02 01:58:13;;;;;;;1.73;0.80;;;8.80;99.90;;;;;;5037805;28;20181;-82
2024/01/02 02:00:39;;;;;;;3.00;0.97;;;9.20;99.90;;;;;;5035089;28;20202;-80
2024/01/02 02:03:05;;;;;;;2.83;0.80;;;8.20;99.70;;;;;;5036889;28;20186;-81
2024/01/02 02:05:31;;;;;;;2.90;0.80;;;8.70;99.80;;;;;;5041005;28;20190;-81
2024/01/02 02:07:56;;;;;;;0.90;0.70;;;8.90;99.90;;;;;;5038771;28;20409;-81
2024/01/02 02:10:22;;;;;;;1.47;0.70;;;9.10;99.90;;;;;;5040639;28;20185;-81
2024/01/02 02:13:06;;;;;;;5.03;0.87;;;8.80;99.90;;;;;;5037293;28;20188;-81
2024/01/02 02:15:32;;;;;;;3.28;0.80;;;8.40;99.80;;;;;;5027225;28;20228;-81
2024/01/02 02:17:57;;;;;;;1.20;0.70;;;8.70;99.90;;;;;;5042823;28;20186;-82
2024/01/02 02:20:23;;;;;;;4.00;0.93;;;8.30;99.60;;;;;;5039268;28;20198;-82
2024/01/02 02:22:49;;;;;;;3.40;0.90;;;8.50;99.80;;;;;;5040576;28;20185;-82
2024/01/02 02:25:16;;;;;;;1.77;0.73;;;8.70;99.90;;;;;;5037460;28;20264;-81
2024/01/02 02:27:41;;;;;;;1.40;0.90;;;8.70;99.90;;;;;;5037588;28;20178;-81
2024/01/02 02:30:07;;;;;;;2.70;0.97;;;8.90;99.90;;;;;;5026268;28;20670;-81
2024/01/02 02:32:33;;;;;;;2.17;1.23;;;9.10;99.90;;;;;;5031097;28;20236;-81
2024/01/02 02:34:58;;;;;;;1.90;1.13;;;8.80;99.90;;;;;;5032663;28;20435;-80
2024/01/02 02:37:24;;;;;;;0.80;0.70;;;9.00;99.90;;;;;;5031115;28;20185;-82
2024/01/02 02:39:49;;;;;;;1.67;0.80;;;8.30;99.90;;;;;;5031299;28;20229;-82
2024/01/02 02:42:15;;;;;;;0.70;0.60;;;8.40;99.90;;;;;;5030378;28;20210;-82
2024/01/02 02:44:42;;;;;;;0.80;0.60;;;8.30;99.90;;;;;;5029705;28;20559;-82
2024/01/02 02:47:09;;;;;;;1.50;0.90;;;8.30;99.90;;;;;;5029914;28;20268;-81
2024/01/02 02:49:34;;;;;;;1.00;0.68;;;8.30;99.90;;;;;;5032372;28;20209;-83
2024/01/02 02:52:00;;;;;;;1.47;1.07;;;8.30;99.90;;;;;;5031704;28;20674;-81
2024/01/02 02:54:25;;;;;;;0.90;0.63;;;8.40;99.90;;;;;;5030508;28;20240;-81
2024/01/02 02:56:50;;;;;;;1.17;1.00;;;8.60;99.90;;;;;;5032694;28;20183;-82
2024/01/02 02:59:16;;;;;;;1.50;0.80;;;8.80;99.90;;;;;;5029375;28;20213;-81
2024/01/02 03:01:41;;;;;;;2.17;1.00;;;8.90;99.90;;;;;;5031818;28;20195;-81
2024/01/02 03:04:07;;;;;;;0.77;0.60;;;8.50;99.90;;;;;;5034850;28;20198;-81
2024/01/02 03:06:32;;;;;;;1.50;0.77;;;8.80;99.90;;;;;;5028817;28;20211;-81
2024/01/02 03:08:58;;;;;;;1.40;0.90;;;9.30;99.90;;;;;;5030094;28;20631;-81
2024/01/02 03:11:23;;;;;;;1.00;0.70;;;8.90;99.90;;;;;;5029268;28;20643;-82
2024/01/02 03:13:49;;;;;;;1.83;0.80;;;8.50;99.90;;;;;;5028633;28;20195;-81
2024/01/02 03:16:15;;;;;;;0.80;0.67;;;8.60;99.90;;;;;;5034103;28;20186;-82
2024/01/02 03:18:41;;;;;;;1.00;0.88;;;8.70;99.90;;;;;;5030672;28;20655;-82
2024/01/02 03:21:10;;;;;;;0.70;0.60;;;8.30;99.90;;;;;;5029179;28;20258;-82
2024/01/02 03:23:35;;;;;;;2.20;0.88;;;8.80;99.90;;;;;;5030684;28;20210;-80
2024/01/02 03:26:01;;;;;;;2.40;0.83;;;8.20;99.90;;;;;;5030821;28;20698;-82
2024/01/02 03:28:26;;;;;;;0.63;0.50;;;8.60;99.90;;;;;;5025662;28;20189;-82
2024/01/02 03:30:52;;;;;;;0.60;0.57;;;8.90;99.90;;;;;;5028107;28;20196;-82
2024/01/02 03:33:18;;;;;;;2.50;0.70;;;8.50;99.90;;;;;;5030789;28;20224;-82
2024/01/02 03:35:44;;;;;;;0.70;0.60;;;8.50;99.90;;;;;;5032422;28;20219;-81
2024/01/02 03:38:10;;;;;;;0.80;0.55;;;9.00;99.90;;;;;;5049259;22;20221;-85
2024/01/02 03:40:36;;;;;;;2.17;0.70;;;8.60;99.90;;;;;;5049543;28;20202;-85
2024/01/02 03:43:02;;;;;;;0.70;0.60;;;8.60;99.90;;;;;;5049922;28;20564;-85
2024/01/02 03:45:27;;;;;;;0.80;0.60;;;8.50;99.90;;;;;;5051212;28;20205;-87
2024/01/02 03:47:53;;;;;;;1.20;0.70;;;8.50;99.90;;;;;;5049523;28;20193;-85
2024/01/02 03:50:18;;;;;;;1.33;0.60;;;9.00;99.90;;;;;;5045558;28;20187;-85
2024/01/02 03:52:44;;;;;;;1.00;0.60;;;8.60;99.90;;;;;;5049872;28;20188;-85
2024/01/02 03:55:09;;;;;;;0.70;0.50;;;8.40;99.90;;;;;;5048246;28;20249;-85
2024/01/02 03:57:35;;;;;;;1.53;0.77;;;8.30;99.90;;;;;;5050413;28;20218;-84
2024/01/02 04:00:01;;;;;;;0.90;0.67;;;8.30;99.90;;;;;;5056401;28;20213;-85
2024/01/02 04:02:26;;;;;;;0.80;0.70;;;8.80;99.90;;;;;;5056378;28;20217;-85
2024/01/02 04:04:52;;;;;;;0.83;0.60;;;8.90;99.90;;;;;;5050964;28;20559;-84
2024/01/02 04:07:17;;;;;;;0.70;0.60;;;8.50;99.90;;;;;;5051766;28;20203;-85
2024/01/02 04:09:43;;;;;;;2.73;0.70;;;8.50;99.90;;;;;;5048419;28;20711;-85
2024/01/02 04:12:08;;;;;;;0.70;0.60;;;8.50;99.90;;;;;;5049038;28;20225;-85
2024/01/02 04:14:34;;;;;;;0.70;0.50;;;8.20;99.90;;;;;;5046121;28;20259;-85
2024/01/02 04:17:00;;;;;;;0.90;0.57;;;8.40;99.90;;;;;;5052877;28;20255;-85
2024/01/02 04:19:26;;;;;;;1.63;0.50;;;8.50;99.90;;;;;;5051932;28;20194;-85
2024/01/02 04:21:51;;;;;;;0.60;0.50;;;8.70;99.90;;;;;;5069840;28;20196;-85
2024/01/02 04:24:17;;;;;;;1.23;0.80;;;8.60;99.90;;;;;;5059338;28;20269;-85
2024/01/02 04:26:42;;;;;;;2.70;0.60;;;8.30;99.90;;;;;;5053736;28;20181;-85
2024/01/02 04:29:08;;;;;;;0.70;0.60;;;8.60;99.90;;;;;;5050619;28;20260;-86
2024/01/02 04:31:33;;;;;;;0.70;0.60;;;8.10;99.90;;;;;;5051681;28;20189;-86
2024/01/02 04:33:59;;;;;;;0.70;0.50;;;8.60;99.90;;;;;;5052117;28;20209;-86
2024/01/02 04:36:27;;;;;;;1.27;0.60;;;8.00;99.90;;;;;;5048741;28;20635;-86
2024/01/02 04:38:53;;;;;;;1.75;0.70;;;8.40;99.90;;;;;;5050079;28;20214;-86
2024/01/02 04:41:19;;;;;;;0.60;0.53;;;8.40;99.90;;;;;;5052233;28;20223;-86
2024/01/02 04:43:45;;;;;;;0.80;0.50;;;8.00;99.90;;;;;;5061640;28;20213;-86
2024/01/02 04:46:11;;;;;;;0.87;0.60;;;8.20;99.90;;;;;;5057613;28;20570;-86
2024/01/02 04:48:36;;;;;;;0.90;0.60;;;8.10;99.90;;;;;;5056371;28;20447;-86
2024/01/02 04:51:02;;;;;;;1.23;0.50;;;8.50;99.90;;;;;;5053703;28;20182;-86
2024/01/02 04:53:28;;;;;;;0.80;0.53;;;8.00;99.90;;;;;;5053204;28;20189;-86
2024/01/02 04:55:53;;;;;;;0.80;0.60;;;8.10;99.90;;;;;;5056637;28;20205;-86
2024/01/02 04:58:19;;;;;;;0.80;0.70;;;8.20;99.90;;;;;;5052301;28;20448;-86
2024/01/02 05:00:45;;;;;;;1.73;0.60;;;8.10;99.90;;;;;;5053707;28;20213;-86
2024/01/02 05:03:10;;;;;;;0.87;0.50;;;7.90;99.90;;;;;;5053719;28;20275;-86
2024/01/02 05:05:39;;;;;;;0.60;0.50;;;8.10;99.90;;;;;;5054226;28;20686;-86
2024/01/02 05:08:05;;;;;;;0.70;0.57;;;7.90;99.90;;;;;;5051298;28;20185;-86
2024/01/02 05:10:30;;;;;;;0.60;0.50;;;7.90;99.90;;;;;;5052712;28;20189;-86
2024/01/02 05:12:56;;;;;;;0.60;0.50;;;7.90;99.90;;;;;;5054339;28;20223;-86
2024/01/02 05:15:21;;;;;;;0.70;0.60;;;7.80;99.90;;;;;;5054166;28;20208;-86
2024/01/02 05:17:47;;;;;;;0.73;0.60;;;8.30;99.90;;;;;;5053859;28;20193;-86
2024/01/02 05:20:12;;;;;;;0.90;0.60;;;8.00;99.90;;;;;;5053655;28;20575;-85
2024/01/02 05:22:39;;;;;;;0.60;0.50;;;8.00;99.90;;;;;;5055570;28;20186;-86
2024/01/02 05:25:05;;;;;;;1.10;0.85;;;7.80;99.90;;;;;;5053114;28;20224;-86
2024/01/02 05:27:30;;;;;;;0.90;0.70;;;7.90;99.90;;;;;;5051408;28;20178;-86
2024/01/02 05:29:56;;;;;;;1.20;0.60;;;8.10;99.90;;;;;;5051721;28;20292;-86
2024/01/02 05:32:21;;;;;;;1.20;0.70;;;8.00;99.90;;;;;;5054081;28;21047;-86
2024/01/02 05:34:47;;;;;;;0.80;0.60;;;7.70;99.90;;;;;;5055890;28;20217;-86
2024/01/02 05:37:14;;;;;;;1.57;1.00;;;7.90;99.90;;;;;;5051793;28;20274;-86
2024/01/02 05:39:40;;;;;;;1.02;0.70;;;7.70;99.90;;;;;;5052552;28;20216;-86
2024/01/02 05:42:05;;;;;;;0.80;0.70;;;7.80;99.90;;;;;;5051871;28;20185;-86
2024/01/02 05:44:31;;;;;;;0.60;0.60;;;7.80;99.90;;;;;;5054850;28;20198;-86
2024/01/02 05:46:56;;;;;;;0.70;0.70;;;7.90;99.90;;;;;;5049452;28;20177;-86
2024/01/02 05:49:22;;;;;;;1.00;0.90;;;8.00;99.90;;;;;;5053954;28;20208;-86
2024/01/02 05:51:47;;;;;;;1.10;0.70;;;7.80;99.90;;;;;;5053663;28;20248;-87
2024/01/02 05:54:13;;;;;;;0.70;0.60;;;7.90;99.90;;;;;;5053153;28;20241;-86
2024/01/02 05:56:38;;;;;;;0.93;0.83;;;8.00;99.90;;;;;;5058843;28;20726;-86
2024/01/02 05:59:04;;;;;;;2.20;0.80;;;7.90;99.90;;;;;;5054841;28;20209;-86
2024/01/02 06:01:29;;;;;;;2.13;0.93;;;8.10;99.90;;;;;;5058714;28;20650;-85
2024/01/02 06:03:55;;;;;;;0.70;0.60;;;7.70;99.90;;;;;;5055117;28;20249;-86
2024/01/02 06:06:20;;;;;;;0.70;0.67;;;8.00;99.90;;;;;;5052602;28;20192;-86
2024/01/02 06:08:46;;;;;;;0.70;0.60;;;7.70;99.90;;;;;;5054418;28;20183;-86
2024/01/02 06:11:12;;;;;;;0.70;0.68;;;8.30;99.90;;;;;;5050327;28;20174;-86
2024/01/02 06:13:38;;;;;;;1.80;0.53;;;8.00;99.90;;;;;;5049037;28;20182;-86
2024/01/02 06:16:03;;;;;;;0.60;0.60;;;7.90;99.90;;;;;;5052161;28;20682;-86
2024/01/02 06:18:29;;;;;;;2.00;0.70;;;7.60;99.90;;;;;;5053809;28;20218;-87
2024/01/02 06:20:55;;;;;;;0.73;0.60;;;7.80;99.90;;;;;;5068606;28;20440;-86
2024/01/02 06:23:21;;;;;;;0.70;0.50;;;8.10;99.90;;;;;;5068369;28;20217;-86
2024/01/02 06:25:47;;;;;;;1.17;0.70;;;8.00;99.90;;;;;;5062523;28;20220;-86
2024/01/02 06:28:13;;;;;;;1.50;0.60;;;7.90;99.90;;;;;;5052107;28;20212;-86
2024/01/02 06:30:38;;;;;;;0.90;0.60;;;8.40;99.90;;;;;;5052988;28;20658;-86
2024/01/02 06:33:04;;;;;;;1.10;1.00;;;8.50;99.90;;;;;;5055911;28;20198;-86
2024/01/02 06:35:30;;;;;;;0.60;0.50;;;8.10;99.90;;;;;;5065358;28;20240;-86
2024/01/02 06:37:55;;;;;;;0.80;0.60;;;8.10;99.90;;;;;;5071752;28;20422;-86
2024/01/02 06:40:21;;;;;;;0.90;0.67;;;8.50;99.90;;;;;;5066663;28;20720;-87
2024/01/02 06:42:46;;;;;;;1.13;0.60;;;8.40;99.90;;;;;;5060890;28;20436;-86
2024/01/02 06:45:12;;;;;;;0.90;0.60;;;8.40;99.90;;;;;;5050097;28;20206;-86
2024/01/02 06:47:37;;;;;;;0.90;0.70;;;8.30;99.90;;;;;;5052342;28;20195;-86
2024/01/02 06:50:03;;;;;;;0.90;0.70;;;8.50;99.90;;;;;;5052191;28;20201;-86
2024/01/02 06:52:29;;;;;;;6.40;0.60;;;8.30;99.90;;;;;;5050587;28;20178;-86
2024/01/02 06:54:54;;;;;;;0.93;0.60;;;8.00;99.90;;;;;;5058941;28;20483;-86
2024/01/02 06:57:20;;;;;;;1.00;0.80;;;8.00;99.90;;;;;;5049226;28;20196;-86
2024/01/02 06:59:46;;;;;;;0.70;0.60;;;8.40;99.90;;;;;;5047837;28;20781;-86
2024/01/02 07:02:12;;;;;;;1.08;0.70;;;8.30;99.90;;;;;;5051519;28;20265;-86
2024/01/02 07:04:38;;;;;;;1.83;0.90;;;8.50;99.90;;;;;;5051006;28;20221;-86
2024/01/02 07:07:03;;;;;;;1.13;0.60;;;8.40;99.90;;;;;;5054893;28;20188;-86
2024/01/02 07:09:29;;;;;;;1.23;0.63;;;8.50;99.90;;;;;;5051369;28;20273;-86
2024/01/02 07:11:54;;;;;;;0.90;0.60;;;8.40;99.90;;;;;;5051086;28;20178;-87
2024/01/02 07:14:20;;;;;;;0.70;0.60;;;8.50;99.90;;;;;;5050256;28;20241;-86
2024/01/02 07:16:45;;;;;;;0.70;0.60;;;8.00;99.90;;;;;;5058320;28;20300;-86
2024/01/02 07:19:13;;;;;;;1.50;0.70;;;8.60;99.90;;;;;;5048624;28;20304;-86
2024/01/02 07:21:39;;;;;;;0.77;0.60;;;8.40;99.90;;;;;;5051367;28;20178;-86
2024/01/02 07:24:04;;;;;;;0.70;0.60;;;9.20;99.90;;;;;;5052430;28;20670;-86
2024/01/02 07:26:30;;;;;;;0.70;0.60;;;8.40;99.90;;;;;;5051841;28;20239;-86
2024/01/02 07:28:55;;;;;;;2.50;1.80;;;8.20;99.90;;;;;;5051244;28;20210;-86
2024/01/02 07:31:21;;;;;;;1.00;0.70;;;8.40;99.90;;;;;;5041709;28;20186;-87
2024/01/02 07:33:46;;;;;;;0.90;0.60;;;8.50;99.90;;;;;;5046967;28;20198;-87
2024/01/02 07:36:12;;;;;;;0.70;0.63;;;8.70;99.90;;;;;;5048737;28;20182;-87
2024/01/02 07:38:38;;;;;;;0.63;0.60;;;8.60;99.90;;;;;;5050934;28;20678;-86
2024/01/02 07:41:03;;;;;;;0.70;0.60;;;8.60;99.90;;;;;;5050437;28;20214;-85
2024/01/02 07:43:30;;;;;;;1.17;0.60;;;8.60;99.90;;;;;;5050789;28;20853;-85
2024/01/02 07:45:56;;;;;;;0.65;0.60;;;8.90;99.90;;;;;;5050634;28;20663;-86
2024/01/02 07:48:21;;;;;;;0.70;0.60;;;9.00;99.90;;;;;;5053368;28;20179;-86
2024/01/02 07:50:47;;;;;;;0.90;0.50;;;8.80;99.90;;;;;;5049793;28;20421;-87
2024/01/02 07:53:19;;;;;;;0.70;0.50;;;8.90;99.90;;;;;;5049232;28;20182;-86
2024/01/02 07:55:46;;;;;;;0.80;0.60;;;9.10;99.90;;;;;;5050191;28;20201;-86
2024/01/02 07:58:11;;;;;;;0.93;0.70;;;8.60;99.90;;;;;;5050274;28;20625;-85
2024/01/02 08:00:37;;;;;;;1.17;0.50;;;9.00;99.90;;;;;;5050362;28;20301;-85
2024/01/02 08:03:04;;;;;;;0.80;0.60;;;9.20;99.90;;;;;;5054868;28;20185;-86
2024/01/02 08:05:29;;;;;;;0.70;0.50;;;8.90;99.90;;;;;;5053851;28;20209;-85
2024/01/02 08:07:55;;;;;;;0.70;0.60;;;9.10;99.90;;;;;;5052470;28;20178;-86
2024/01/02 08:10:20;;;;;;;1.00;0.90;;;9.20;99.90;;;;;;5051421;28;20206;-85
2024/01/02 08:12:46;;;;;;;0.90;0.70;;;8.90;99.90;;;;;;5052099;28;20189;-86
2024/01/02 08:15:12;;;;;;;0.60;0.50;;;8.90;99.90;;;;;;5054841;28;20274;-86
2024/01/02 08:17:39;;;;;;;0.65;0.60;;;9.50;99.90;;;;;;5050568;28;20197;-86
2024/01/02 08:20:05;;;;;;;0.70;0.60;;;9.00;99.90;;;;;;5047746;28;20213;-86
2024/01/02 08:22:31;;;;;;;0.70;0.60;;;9.10;99.90;;;;;;5049297;28;20186;-86
2024/01/02 08:24:56;;;;;;;1.13;0.70;;;9.20;99.90;;;;;;5063334;28;20216;-86
2024/01/02 08:27:25;;;;;;;0.80;0.50;;;9.70;99.90;;;;;;5055844;28;20268;-85
2024/01/02 08:29:51;;;;;;;0.70;0.40;;;11.10;99.90;;;;;;5046701;28;20194;-85
2024/01/02 08:32:17;;;;;;;0.80;0.40;;;9.10;99.90;;;;;;5050674;28;20215;-87
2024/01/02 08:34:43;;;;;;;1.80;0.57;;;9.50;99.90;;;;;;5053897;28;20518;-85
2024/01/02 08:37:09;;;;;;;0.80;0.60;;;9.30;99.90;;;;;;5049352;28;20189;-85
2024/01/02 08:39:35;;;;;;;0.60;0.50;;;9.60;99.90;;;;;;5051570;28;20207;-85
2024/01/02 08:42:01;;;;;;;0.73;0.60;;;9.40;99.90;;;;;;5041603;28;20179;-85
2024/01/02 08:44:26;;;;;;;0.67;0.50;;;9.60;99.90;;;;;;5048932;28;20220;-84
2024/01/02 08:46:52;;;;;;;0.67;0.50;;;9.50;99.90;;;;;;5050889;28;20464;-85
2024/01/02 08:49:20;;;;;;;0.60;0.50;;;10.10;99.90;;;;;;5058759;28;20266;-86
2024/01/02 08:51:45;;;;;;;1.08;0.75;;;9.60;99.90;;;;;;5015528;28;20225;-86
2024/01/02 08:54:11;;;;;;;0.80;0.50;;;9.70;99.90;;;;;;5050005;28;20627;-85
2024/01/02 08:56:36;;;;;;;0.80;0.60;;;10.10;99.90;;;;;;5050553;28;20191;-85
2024/01/02 08:59:02;;;;;;;0.90;0.60;;;10.20;99.90;;;;;;5043037;28;20222;-85
2024/01/02 09:01:28;;;;;;;0.70;0.60;;;9.90;99.90;;;;;;5046222;28;20191;-85
2024/01/02 09:03:54;;;;;;;0.90;0.50;;;9.80;99.90;;;;;;5050095;28;20293;-86
2024/01/02 09:06:19;;;;;;;0.53;0.40;;;10.10;99.90;;;;;;5051467;28;21373;-86
2024/01/02 09:08:46;;;;;;;1.73;0.50;;;10.20;99.90;;;;;;5051688;28;20199;-85
2024/01/02 09:11:15;;;;;;;0.60;0.50;;;11.20;99.90;;;;;;5055177;28;20443;-85
2024/01/02 09:13:41;;;;;;;0.88;0.70;;;10.20;99.90;;;;;;5050367;28;20195;-85
2024/01/02 09:16:07;;;;;;;0.70;0.50;;;9.90;99.90;;;;;;5049932;28;20551;-86
2024/01/02 09:18:33;;;;;;;2.15;0.60;;;9.90;99.90;;;;;;5051806;28;20204;-87
2024/01/02 09:20:59;;;;;;;0.70;0.60;;;10.10;99.90;;;;;;5047416;28;20254;-86
2024/01/02 09:23:24;;;;;;;0.60;0.50;;;10.50;99.90;;;;;;5043145;28;20540;-86
2024/01/02 09:25:51;;;;;;;0.70;0.50;;;10.00;99.90;;;;;;5053314;28;20311;-86
2024/01/02 09:28:18;;;;;;;0.60;0.45;;;10.00;99.90;;;;;;5048085;28;20644;-85
2024/01/02 09:30:44;;;;;;;1.05;0.82;;;10.20;99.90;;;;;;5053081;28;20183;-87
2024/01/02 09:33:10;;;;;;;0.70;0.67;;;10.10;99.90;;;;;;5057019;28;20695;-85
2024/01/02 09:35:36;;;;;;;0.90;0.60;;;10.10;99.90;;;;;;5067632;28;20469;-85
2024/01/02 09:38:06;;;;;;;1.20;0.60;;;10.40;99.90;;;;;;5053271;28;20520;-85
2024/01/02 09:40:34;;;;;;;0.60;0.50;;;10.40;99.90;;;;;;5058973;28;20309;-85
2024/01/02 09:43:30;;;;;;;1.00;0.63;;;10.30;99.90;;;;;;5062941;28;20656;-86
2024/01/02 09:46:19;;;;;;;0.80;0.60;;;10.50;99.90;;;;;;5066773;28;20205;-86
2024/01/02 09:49:02;;;;;;;0.80;0.60;;;10.50;99.90;;;;;;5063563;28;20632;-86
2024/01/02 09:51:51;;;;;;;0.68;0.55;;;10.40;99.90;;;;;;5052852;28;20580;-86
2024/01/02 09:54:36;;;;;;;0.82;0.52;;;10.70;99.90;;;;;;5062624;28;20294;-85
2024/01/02 09:57:14;;;;;;;0.85;0.77;;;10.60;99.90;;;;;;5060608;28;20211;-87
2024/01/02 10:00:03;;;;;;;0.80;0.45;;;10.70;99.90;;;;;;5049623;28;20215;-86
2024/01/02 10:03:02;;;;;;;1.00;0.55;;;10.60;99.90;;;;;;5058280;28;20183;-87
2024/01/02 10:05:54;;;;;;;0.90;0.60;;;10.60;99.90;;;;;;5056680;28;20207;-85
2024/01/02 10:08:38;;;;;;;0.60;0.50;;;10.70;99.90;;;;;;5055428;28;20282;-86
2024/01/02 10:11:22;;;;;;;0.70;0.50;;;10.90;99.90;;;;;;5052209;28;20194;-86
2024/01/02 10:13:53;;;;;;;0.60;0.50;;;10.80;99.90;;;;;;5049807;28;20725;-86
2024/01/02 10:16:27;;;;;;;0.70;0.55;;;11.00;99.90;;;;;;5054343;28;20185;-87
2024/01/02 10:19:00;;;;;;;0.70;0.50;;;11.10;99.90;;;;;;5058322;28;20220;-86
2024/01/02 10:21:36;;;;;;;0.60;0.40;;;10.90;99.90;;;;;;5051615;28;20177;-86
2024/01/02 10:24:27;;;;;;;0.80;0.63;;;11.10;99.90;;;;;;5054111;28;20579;-86
2024/01/02 10:27:09;;;;;;;1.10;0.70;;;11.00;99.90;;;;;;5054384;28;20756;-86
2024/01/02 10:29:57;;;;;;;1.00;0.55;;;11.00;99.90;;;;;;5052077;28;20281;-86
2024/01/02 10:32:47;;;;;;;0.70;0.70;;;11.00;99.90;;;;;;5061022;28;20179;-86
2024/01/02 10:35:42;;;;;;;0.70;0.50;;;11.00;99.90;;;;;;5042337;28;20306;-86
2024/01/02 10:38:20;;;;;;;0.80;0.70;;;11.30;99.90;;;;;;5050330;28;20201;-85
2024/01/02 10:41:25;;;;;;;0.75;0.60;;;11.30;99.90;;;;;;5048542;28;20524;-87
2024/01/02 10:44:06;;;;;;;0.63;0.50;;;11.30;99.90;;;;;;5051465;28;20191;-86
2024/01/02 10:46:38;;;;;;;0.90;0.70;;;11.10;99.90;;;;;;5052812;28;20188;-86
2024/01/02 10:49:25;;;;;;;0.70;0.50;;;11.20;99.90;;;;;;5051133;28;20280;-86
2024/01/02 10:52:01;;;;;;;1.23;0.70;;;11.20;99.90;;;;;;5052071;28;20280;-86
2024/01/02 10:54:37;;;;;;;0.75;0.60;;;11.50;99.90;;;;;;5056914;28;20235;-86
2024/01/02 10:57:06;;;;;;;0.65;0.50;;;11.30;99.90;;;;;;5055918;28;20278;-87
2024/01/02 11:00:01;;;;;;;0.60;0.50;;;11.60;99.90;;;;;;5049392;28;20254;-86
2024/01/02 11:02:48;;;;;;;0.68;0.50;;;11.30;99.90;;;;;;5048864;28;20192;-86
2024/01/02 11:05:31;;;;;;;0.70;0.50;;;11.20;99.90;;;;;;5047981;28;20216;-86
2024/01/02 11:08:19;;;;;;;0.77;0.50;;;11.10;99.90;;;;;;5052676;28;20184;-86
2024/01/02 11:10:57;;;;;;;0.60;0.50;;;11.30;99.90;;;;;;5051935;28;20192;-85
2024/01/02 11:13:25;;;;;;;0.90;0.60;;;11.70;99.90;;;;;;5055965;28;20267;-86
2024/01/02 11:15:59;;;;;;;1.90;1.73;;;11.20;99.90;;;;;;5053178;28;20580;-85
2024/01/02 11:18:29;;;;;;;0.80;0.65;;;11.60;99.90;;;;;;5052548;28;20180;-85
2024/01/02 11:21:14;;;;;;;0.80;0.60;;;12.10;99.90;;;;;;5051785;28;20221;-85
2024/01/02 11:23:46;;;;;;;0.90;0.65;;;11.50;99.90;;;;;;5062803;28;20222;-86
2024/01/02 11:26:24;;;;;;;0.70;0.50;;;12.00;99.90;;;;;;5052130;28;20286;-85
2024/01/02 11:28:52;;;;;;;0.50;0.40;;;11.60;99.90;;;;;;5050329;28;20185;-85
2024/01/02 11:31:20;;;;;;;0.90;0.50;;;12.00;99.90;;;;;;5052054;28;20177;-84
2024/01/02 11:34:16;;;;;;;0.90;0.70;;;11.30;99.90;;;;;;5063420;28;20208;-87
2024/01/02 11:37:27;;;;;;;0.60;0.50;;;12.00;99.90;;;;;;5062434;28;20193;-86
2024/01/02 11:40:22;;;;;;;0.60;0.50;;;11.90;99.90;;;;;;5063468;28;20210;-87
2024/01/02 11:43:05;;;;;;;0.60;0.40;;;12.20;99.90;;;;;;5056244;28;20192;-86
2024/01/02 11:45:37;;;;;;;0.60;0.60;;;12.00;99.90;;;;;;5061774;28;20204;-86
2024/01/02 11:48:30;;;;;;;0.60;0.50;;;12.00;99.90;;;;;;5058231;28;20185;-87
2024/01/02 11:51:01;;;;;;;1.90;0.60;;;12.00;99.90;;;;;;5054510;28;20185;-87
2024/01/02 11:53:56;;;;;;;0.70;0.50;;;11.80;99.90;;;;;;5055204;28;20185;-87
2024/01/02 11:56:23;;;;;;;0.60;0.50;;;12.20;99.90;;;;;;5046324;28;20232;-87
2024/01/02 11:59:18;;;;;;;0.70;0.50;;;12.30;99.90;;;;;;5046805;28;20205;-86
2024/01/02 12:02:14;;;;;;;0.70;0.60;;;12.50;99.90;;;;;;5038937;28;20228;-86
2024/01/02 12:04:52;;;;;;;0.80;0.60;;;12.30;99.90;;;;;;5035600;28;20286;-86
2024/01/02 12:07:28;;;;;;;0.60;0.55;;;12.60;99.90;;;;;;5055732;28;20552;-86
2024/01/02 12:09:56;;;;;;;0.70;0.60;;;12.40;99.90;;;;;;5065148;28;20660;-86
2024/01/02 12:13:04;;;;;;;0.70;0.60;;;12.30;99.90;;;;;;5055827;28;20669;-85
2024/01/02 12:15:39;;;;;;;0.93;0.50;;;12.20;99.90;;;;;;5055854;28;20216;-86
2024/01/02 12:18:06;;;;;;;1.17;0.50;;;11.90;99.90;;;;;;5054439;28;20331;-87
2024/01/02 12:20:55;;;;;;;0.90;0.60;;;12.30;99.90;;;;;;5052728;28;20205;-85
2024/01/02 12:23:21;;;;;;;0.90;0.68;;;12.00;99.90;;;;;;5053704;28;20186;-85
2024/01/02 12:25:49;;;;;;;0.60;0.50;;;12.30;99.90;;;;;;5054002;28;20358;-86
2024/01/02 12:28:18;;;;;;;1.38;0.60;;;12.50;99.90;;;;;;5054574;28;20232;-86
2024/01/02 12:30:52;;;;;;;0.70;0.60;;;12.20;99.90;;;;;;5051829;28;20276;-87
2024/01/02 12:33:34;;;;;;;0.60;0.50;;;11.80;99.90;;;;;;5055617;28;20520;-86
2024/01/02 12:36:36;;;;;;;0.82;0.50;;;12.20;99.90;;;;;;5061934;28;20192;-85
2024/01/02 12:39:05;;;;;;;0.70;0.60;;;11.50;99.90;;;;;;5069880;28;20259;-86
2024/01/02 12:41:51;;;;;;;0.70;0.63;;;11.50;99.90;;;;;;5069116;28;20182;-87
2024/01/02 12:44:18;;;;;;;1.10;0.90;;;11.10;99.90;;;;;;5068174;28;20188;-85
2024/01/02 12:47:01;;;;;;;2.83;0.82;;;11.80;99.90;;;;;;5069561;28;20288;-86
2024/01/02 12:49:28;;;;;;;1.02;0.70;;;11.70;99.90;;;;;;5067742;28;20166;-88
2024/01/02 12:52:04;;;;;;;1.65;0.95;;;11.60;99.90;;;;;;5071168;28;20165;-85
2024/01/02 12:54:30;;;;;;;0.70;0.50;;;11.90;99.90;;;;;;5068085;28;20306;-86
2024/01/02 12:57:01;;;;;;;0.95;0.60;;;11.70;99.90;;;;;;5073460;28;20217;-85
2024/01/02 12:59:30;;;;;;;0.80;0.73;;;11.50;99.90;;;;;;5069029;28;20209;-87
2024/01/02 13:01:57;;;;;;;0.80;0.60;;;12.00;99.90;;;;;;5067686;28;20178;-86
2024/01/02 13:04:23;;;;;;;0.70;0.60;;;11.30;99.90;;;;;;5073333;28;20682;-86